createdAt,value
2022-08-22T00:00:13.257Z,7.90
2022-08-22T00:03:04.984Z,8.43
2022-08-22T00:03:29.753Z,7.70
2022-08-22T00:06:36.529Z,7.20
2022-08-22T00:09:41.980Z,7.00
2022-08-22T00:12:43.844Z,7.10
2022-08-22T00:16:12.290Z,6.87
2022-08-22T00:19:31.501Z,6.50
2022-08-22T00:22:39.161Z,7.47
2022-08-22T00:26:02.203Z,6.50
2022-08-22T00:29:07.201Z,6.30
2022-08-22T00:32:35.432Z,6.50
2022-08-22T00:35:45.259Z,6.07
2022-08-22T00:38:52.273Z,6.03
2022-08-22T00:41:59.952Z,6.30
2022-08-22T00:45:01.996Z,5.87
2022-08-22T00:48:17.207Z,5.53
2022-08-22T00:51:22.564Z,5.80
2022-08-22T00:54:28.682Z,5.50
2022-08-22T00:57:35.252Z,5.73
2022-08-22T01:00:43.352Z,5.20
2022-08-22T01:03:51.204Z,5.67
2022-08-22T01:07:02.411Z,5.20
2022-08-22T01:10:16.126Z,5.43
2022-08-22T01:13:29.741Z,5.60
2022-08-22T01:16:31.314Z,6.13
2022-08-22T01:19:32.915Z,6.03
2022-08-22T01:22:37.626Z,6.43
2022-08-22T01:26:09.871Z,7.40
2022-08-22T01:29:32.004Z,6.17
2022-08-22T01:33:12.200Z,5.53
2022-08-22T01:36:16.558Z,5.77
2022-08-22T01:39:36.911Z,6.50
2022-08-22T01:42:41.585Z,6.63
2022-08-22T01:45:55.181Z,6.60
2022-08-22T01:49:05.838Z,6.63
2022-08-22T01:52:39.602Z,6.53
2022-08-22T01:55:41.294Z,6.53
2022-08-22T01:58:55.330Z,7.10
2022-08-22T02:02:03.170Z,7.33
2022-08-22T02:05:09.423Z,6.33
2022-08-22T02:08:22.151Z,6.07
2022-08-22T02:11:32.979Z,6.53
2022-08-22T02:14:45.085Z,5.87
2022-08-22T02:17:49.845Z,5.67
2022-08-22T02:21:02.772Z,5.90
2022-08-22T02:24:14.635Z,6.23
2022-08-22T02:27:37.089Z,6.20
2022-08-22T02:30:44.883Z,6.23
2022-08-22T02:33:46.574Z,6.03
2022-08-22T02:36:58.150Z,6.00
2022-08-22T02:40:06.496Z,5.73
2022-08-22T02:43:34.552Z,5.70
2022-08-22T02:46:47.049Z,5.30
2022-08-22T02:50:04.892Z,6.23
2022-08-22T02:53:21.144Z,5.80
2022-08-22T02:56:26.960Z,5.97
2022-08-22T02:59:33.682Z,5.60
2022-08-22T03:02:37.440Z,5.63
2022-08-22T03:05:39.104Z,6.10
2022-08-22T03:08:42.810Z,6.10
2022-08-22T03:11:58.356Z,5.90
2022-08-22T03:15:09.808Z,6.00
2022-08-22T03:18:31.370Z,5.93
2022-08-22T03:21:43.979Z,6.00
2022-08-22T03:25:04.932Z,5.93
2022-08-22T03:28:11.727Z,6.10
2022-08-22T03:31:20.506Z,6.10
2022-08-22T03:34:23.919Z,6.10
2022-08-22T03:37:31.904Z,6.00
2022-08-22T03:40:51.849Z,6.03
2022-08-22T03:44:06.443Z,6.20
2022-08-22T03:47:28.531Z,6.60
2022-08-22T03:50:49.415Z,6.70
2022-08-22T03:54:15.437Z,6.70
2022-08-22T03:57:33.603Z,7.10
2022-08-22T04:00:44.397Z,6.53
2022-08-22T04:04:07.055Z,6.77
2022-08-22T04:07:32.260Z,7.60
2022-08-22T04:10:56.314Z,7.33
2022-08-22T04:14:15.900Z,7.40
2022-08-22T04:17:20.574Z,6.93
2022-08-22T04:20:40.749Z,6.63
2022-08-22T04:23:42.400Z,6.33
2022-08-22T04:26:50.307Z,7.10
2022-08-22T04:29:58.369Z,5.90
2022-08-22T04:33:14.506Z,5.67
2022-08-22T04:36:19.897Z,6.27
2022-08-22T04:39:32.130Z,5.30
2022-08-22T04:42:36.491Z,5.30
2022-08-22T04:45:42.699Z,5.50
2022-08-22T04:48:56.571Z,6.27
2022-08-22T04:52:14.090Z,5.40
2022-08-22T04:55:34.640Z,4.50
2022-08-22T04:58:55.750Z,6.00
2022-08-22T05:01:59.268Z,5.30
2022-08-22T05:05:04.260Z,5.50
2022-08-22T05:08:09.816Z,4.70
2022-08-22T05:11:14.858Z,5.07
2022-08-22T05:14:18.765Z,5.03
2022-08-22T05:17:25.516Z,4.90
2022-08-22T05:20:28.179Z,5.23
2022-08-22T05:23:33.871Z,5.00
2022-08-22T05:26:38.195Z,6.07
2022-08-22T05:29:41.859Z,5.37
2022-08-22T05:32:50.373Z,5.77
2022-08-22T05:35:58.086Z,6.97
2022-08-22T05:39:02.645Z,5.67
2022-08-22T05:42:04.594Z,4.70
2022-08-22T05:45:11.590Z,4.97
2022-08-22T05:48:21.906Z,4.43
2022-08-22T05:51:32.306Z,5.47
2022-08-22T05:54:38.040Z,5.17
2022-08-22T05:57:41.810Z,6.43
2022-08-22T06:00:45.944Z,5.00
2022-08-22T06:03:56.798Z,5.27
2022-08-22T06:06:58.583Z,5.00
2022-08-22T06:10:18.980Z,10.13
2022-08-22T06:13:24.664Z,5.63
2022-08-22T06:16:47.312Z,6.17
2022-08-22T06:19:52.236Z,5.63
2022-08-22T06:22:55.844Z,5.17
2022-08-22T06:25:59.241Z,5.27
2022-08-22T06:29:01.627Z,5.50
2022-08-22T06:32:08.239Z,6.30
2022-08-22T06:35:19.505Z,6.73
2022-08-22T06:38:21.810Z,5.20
2022-08-22T06:41:25.864Z,6.20
2022-08-22T06:44:29.985Z,5.93
2022-08-22T06:47:53.682Z,5.60
2022-08-22T06:50:58.546Z,5.40
2022-08-22T06:54:01.782Z,6.00
2022-08-22T06:57:04.747Z,6.00
2022-08-22T07:00:10.342Z,5.30
2022-08-22T07:03:14.849Z,11.00
2022-08-22T07:06:19.627Z,6.03
2022-08-22T07:09:24.326Z,6.27
2022-08-22T07:12:35.291Z,7.03
2022-08-22T07:15:40.273Z,6.03
2022-08-22T07:18:49.108Z,5.37
2022-08-22T07:21:50.770Z,4.50
2022-08-22T07:25:09.439Z,4.97
2022-08-22T07:28:17.315Z,6.22
2022-08-22T07:31:33.993Z,5.75
2022-08-22T07:34:49.710Z,4.47
2022-08-22T07:37:54.612Z,4.22
2022-08-22T07:41:15.603Z,4.35
2022-08-22T07:44:19.222Z,4.10
2022-08-22T07:47:26.171Z,4.03
2022-08-22T07:50:30.393Z,3.88
2022-08-22T07:53:39.403Z,4.10
2022-08-22T07:57:10.698Z,4.05
2022-08-22T08:00:15.054Z,7.15
2022-08-22T08:03:17.343Z,6.53
2022-08-22T08:06:21.160Z,4.10
2022-08-22T08:09:23.787Z,4.90
2022-08-22T08:12:35.938Z,4.75
2022-08-22T08:15:39.309Z,4.78
2022-08-22T08:18:41.048Z,4.72
2022-08-22T08:21:51.175Z,5.80
2022-08-22T08:24:55.644Z,5.88
2022-08-22T08:28:24.181Z,4.53
2022-08-22T08:31:26.070Z,4.38
2022-08-22T08:34:28.796Z,4.72
2022-08-22T08:37:36.000Z,4.75
2022-08-22T08:40:56.510Z,5.45
2022-08-22T08:43:58.108Z,5.28
2022-08-22T08:47:26.092Z,5.70
2022-08-22T08:50:46.442Z,5.18
2022-08-22T08:53:52.893Z,5.22
2022-08-22T08:57:10.284Z,4.65
2022-08-22T09:00:22.206Z,5.00
2022-08-22T09:03:53.775Z,5.13
2022-08-22T09:07:14.288Z,5.07
2022-08-22T09:10:34.459Z,4.78
2022-08-22T09:13:54.724Z,5.40
2022-08-22T09:17:05.219Z,4.85
2022-08-22T09:20:17.558Z,5.07
2022-08-22T09:23:21.254Z,4.47
2022-08-22T09:26:43.139Z,5.30
2022-08-22T09:29:59.690Z,4.60
2022-08-22T09:33:09.275Z,4.65
2022-08-22T09:36:29.714Z,4.35
2022-08-22T09:39:36.619Z,4.90
2022-08-22T09:42:46.423Z,5.20
2022-08-22T09:45:53.332Z,4.80
2022-08-22T09:49:17.663Z,4.82
2022-08-22T09:52:33.197Z,5.20
2022-08-22T09:55:35.992Z,4.80
2022-08-22T09:58:42.631Z,4.82
2022-08-22T10:01:45.080Z,6.78
2022-08-22T10:04:55.372Z,6.60
2022-08-22T10:08:20.032Z,5.35
2022-08-22T10:11:22.975Z,5.28
2022-08-22T10:14:33.899Z,5.23
2022-08-22T10:17:40.966Z,5.35
2022-08-22T10:20:50.705Z,5.30
2022-08-22T10:23:54.623Z,5.28
2022-08-22T10:27:00.962Z,5.45
2022-08-22T10:30:05.665Z,5.32
2022-08-22T10:33:29.197Z,5.93
2022-08-22T10:36:30.950Z,5.30
2022-08-22T10:39:44.397Z,5.00
2022-08-22T10:42:49.165Z,5.33
2022-08-22T10:45:53.247Z,5.40
2022-08-22T10:48:59.893Z,7.97
2022-08-22T10:52:15.723Z,5.80
2022-08-22T10:55:22.240Z,5.07
2022-08-22T10:58:28.507Z,7.43
2022-08-22T11:01:48.290Z,6.17
2022-08-22T11:04:49.985Z,5.80
2022-08-22T11:08:06.380Z,6.03
2022-08-22T11:11:14.194Z,5.50
2022-08-22T11:14:35.258Z,5.78
2022-08-22T11:17:54.252Z,5.40
2022-08-22T11:20:56.028Z,6.28
2022-08-22T11:24:17.442Z,5.20
2022-08-22T11:27:40.139Z,5.40
2022-08-22T11:31:03.633Z,5.50
2022-08-22T11:34:29.189Z,5.40
2022-08-22T11:38:11.082Z,5.47
2022-08-22T11:41:12.947Z,6.03
2022-08-22T11:44:14.753Z,5.90
2022-08-22T11:47:18.128Z,6.85
2022-08-22T11:50:19.847Z,5.97
2022-08-22T11:53:27.926Z,5.68
2022-08-22T11:56:34.494Z,7.45
2022-08-22T11:59:57.983Z,5.20
2022-08-22T12:03:39.319Z,6.13
2022-08-22T12:07:01.365Z,5.50
2022-08-22T12:10:03.008Z,5.95
2022-08-22T12:13:14.648Z,5.97
2022-08-22T12:16:16.256Z,5.45
2022-08-22T12:19:17.851Z,5.88
2022-08-22T12:22:44.463Z,6.00
2022-08-22T12:26:05.976Z,6.18
2022-08-22T12:29:34.074Z,6.17
2022-08-22T12:32:45.842Z,5.78
2022-08-22T12:36:18.109Z,6.23
2022-08-22T12:39:40.394Z,5.90
2022-08-22T12:42:46.140Z,6.60
2022-08-22T12:46:28.791Z,6.43
2022-08-22T12:49:36.934Z,6.30
2022-08-22T12:53:12.259Z,6.00
2022-08-22T12:56:41.507Z,6.27
2022-08-22T12:59:51.941Z,7.20
2022-08-22T13:02:54.980Z,6.73
2022-08-22T13:06:00.541Z,6.45
2022-08-22T13:09:04.143Z,6.17
2022-08-22T13:12:21.204Z,6.83
2022-08-22T13:15:22.866Z,7.53
2022-08-22T13:18:30.501Z,8.03
2022-08-22T13:21:36.235Z,6.80
2022-08-22T13:24:52.279Z,7.10
2022-08-22T13:27:59.283Z,6.47
2022-08-22T13:31:02.197Z,6.43
2022-08-22T13:34:10.908Z,7.87
2022-08-22T13:37:15.414Z,7.20
2022-08-22T13:40:30.806Z,7.57
2022-08-22T13:43:51.447Z,7.87
2022-08-22T13:47:13.604Z,8.37
2022-08-22T13:50:19.231Z,8.93
2022-08-22T13:53:45.230Z,7.83
2022-08-22T13:57:06.270Z,8.77
2022-08-22T14:00:28.540Z,7.97
2022-08-22T14:03:49.875Z,11.87
2022-08-22T14:07:04.510Z,9.83
2022-08-22T14:10:15.005Z,9.30
2022-08-22T14:13:39.235Z,9.10
2022-08-22T14:16:41.075Z,9.67
2022-08-22T14:19:52.991Z,9.20
2022-08-22T14:23:04.128Z,10.80
2022-08-22T14:26:06.575Z,10.40
2022-08-22T14:29:16.232Z,10.97
2022-08-22T14:32:26.774Z,9.97
2022-08-22T14:35:37.542Z,10.17
2022-08-22T14:38:46.114Z,10.13
2022-08-22T14:41:56.519Z,10.40
2022-08-22T14:45:10.358Z,10.37
2022-08-22T14:48:30.695Z,13.47
2022-08-22T14:51:33.740Z,12.30
2022-08-22T14:54:35.589Z,11.90
2022-08-22T14:57:40.870Z,10.67
2022-08-22T15:00:44.955Z,9.90
2022-08-22T15:03:52.579Z,9.60
2022-08-22T15:06:57.932Z,9.93
2022-08-22T15:10:03.407Z,10.77
2022-08-22T15:13:08.073Z,9.93
2022-08-22T15:16:13.942Z,9.10
2022-08-22T15:19:41.096Z,9.63
2022-08-22T15:22:46.074Z,10.33
2022-08-22T15:25:57.312Z,9.43
2022-08-22T15:29:05.459Z,10.93
2022-08-22T15:32:08.019Z,10.33
2022-08-22T15:35:10.627Z,9.47
2022-08-22T15:38:32.456Z,13.00
2022-08-22T15:41:40.898Z,10.93
2022-08-22T15:44:46.947Z,11.00
2022-08-22T15:47:51.998Z,10.67
2022-08-22T15:50:58.669Z,9.63
2022-08-22T15:54:03.354Z,9.43
2022-08-22T15:57:22.779Z,9.47
2022-08-22T16:00:24.815Z,10.30
2022-08-22T16:03:31.282Z,9.83
2022-08-22T16:06:42.509Z,9.30
2022-08-22T16:09:48.197Z,9.23
2022-08-22T16:13:08.496Z,10.10
2022-08-22T16:16:11.175Z,10.17
2022-08-22T16:19:17.606Z,10.43
2022-08-22T16:22:19.295Z,10.67
2022-08-22T16:25:40.872Z,10.23
2022-08-22T16:29:03.838Z,10.80
2022-08-22T16:32:07.307Z,10.03
2022-08-22T16:35:09.202Z,10.73
2022-08-22T16:38:21.918Z,11.47
2022-08-22T16:41:31.694Z,12.57
2022-08-22T16:44:37.212Z,15.77
2022-08-22T16:47:41.622Z,19.60
2022-08-22T16:50:43.547Z,33.00
2022-08-22T16:53:51.533Z,14.43
2022-08-22T16:57:14.665Z,13.13
2022-08-22T17:00:52.074Z,12.47
2022-08-22T17:03:56.883Z,17.77
2022-08-22T17:07:07.979Z,11.83
2022-08-22T17:10:12.688Z,11.20
2022-08-22T17:13:17.182Z,11.07
2022-08-22T17:16:21.540Z,36.33
2022-08-22T17:19:41.689Z,12.90
2022-08-22T17:22:43.313Z,33.97
2022-08-22T17:26:03.611Z,24.83
2022-08-22T17:29:08.286Z,12.50
2022-08-22T17:32:18.545Z,14.30
2022-08-22T17:35:23.169Z,11.83
2022-08-22T17:38:34.068Z,12.77
2022-08-22T17:41:35.712Z,13.70
2022-08-22T17:44:49.491Z,12.87
2022-08-22T17:47:56.874Z,17.80
2022-08-22T17:51:02.607Z,13.27
2022-08-22T17:54:13.876Z,12.43
2022-08-22T17:57:24.940Z,11.60
2022-08-22T18:00:30.718Z,13.67
2022-08-22T18:03:37.515Z,12.17
2022-08-22T18:06:46.253Z,12.03
2022-08-22T18:09:50.720Z,12.50
2022-08-22T18:13:10.959Z,13.47
2022-08-22T18:16:12.555Z,12.00
2022-08-22T18:19:19.800Z,11.67
2022-08-22T18:22:41.628Z,12.40
2022-08-22T18:25:45.908Z,12.00
2022-08-22T18:28:56.502Z,11.87
2022-08-22T18:32:13.553Z,11.37
2022-08-22T18:35:31.453Z,11.83
2022-08-22T18:38:51.769Z,11.60
2022-08-22T18:42:02.377Z,11.90
2022-08-22T18:45:05.419Z,11.83
2022-08-22T18:48:07.128Z,12.70
2022-08-22T18:51:25.794Z,14.07
2022-08-22T18:54:34.683Z,12.73
2022-08-22T18:57:45.480Z,13.20
2022-08-22T19:00:53.080Z,12.10
2022-08-22T19:04:00.900Z,12.67
2022-08-22T19:07:11.611Z,12.63
2022-08-22T19:10:27.907Z,12.23
2022-08-22T19:13:48.413Z,13.17
2022-08-22T19:17:05.452Z,12.57
2022-08-22T19:20:26.069Z,12.87
2022-08-22T19:23:32.704Z,12.93
2022-08-22T19:26:36.635Z,12.53
2022-08-22T19:29:38.264Z,12.27
2022-08-22T19:32:44.007Z,12.27
2022-08-22T19:35:52.417Z,12.70
2022-08-22T19:38:56.978Z,12.80
2022-08-22T19:41:59.765Z,12.03
2022-08-22T19:45:01.426Z,12.13
2022-08-22T19:48:13.102Z,12.93
2022-08-22T19:51:21.674Z,13.10
2022-08-22T19:54:24.251Z,13.07
2022-08-22T19:57:37.937Z,12.40
2022-08-22T20:00:55.336Z,12.23
2022-08-22T20:03:59.630Z,12.07
2022-08-22T20:07:14.389Z,12.40
2022-08-22T20:10:21.037Z,12.57
2022-08-22T20:13:24.337Z,12.37
2022-08-22T20:16:44.384Z,12.97
2022-08-22T20:23:15.801Z,13.87
2022-08-22T20:26:17.571Z,12.97
2022-08-22T20:29:19.837Z,12.73
2022-08-22T20:32:23.379Z,13.93
2022-08-22T20:35:33.473Z,13.20
2022-08-22T20:38:38.147Z,14.00
2022-08-22T20:41:46.566Z,13.40
2022-08-22T20:44:53.558Z,13.30
2022-08-22T20:47:55.740Z,12.80
2022-08-22T20:51:04.730Z,13.30
2022-08-22T20:54:16.626Z,13.13
2022-08-22T20:57:19.475Z,13.33
2022-08-22T21:00:25.910Z,13.43
2022-08-22T21:03:33.349Z,12.87
2022-08-22T21:06:36.122Z,13.00
2022-08-22T21:09:56.165Z,12.07
2022-08-22T21:13:09.963Z,13.23
2022-08-22T21:16:13.304Z,12.70
2022-08-22T21:19:32.798Z,12.30
2022-08-22T21:22:34.743Z,12.40
2022-08-22T21:25:50.920Z,13.00
2022-08-22T21:28:52.570Z,13.50
2022-08-22T21:31:56.178Z,12.43
2022-08-22T21:35:24.614Z,12.13
2022-08-22T21:38:27.221Z,12.70
2022-08-22T21:41:31.621Z,12.50
2022-08-22T21:44:36.053Z,12.90
2022-08-22T21:47:39.551Z,11.90
2022-08-22T21:50:41.477Z,12.77
2022-08-22T21:53:43.111Z,11.63
2022-08-22T21:56:44.864Z,12.97
2022-08-22T21:59:59.578Z,12.97
2022-08-22T22:03:02.602Z,13.97
2022-08-22T22:06:05.661Z,13.50
2022-08-22T22:09:09.122Z,12.87
2022-08-22T22:12:12.694Z,12.73
2022-08-22T22:15:16.655Z,13.20
2022-08-22T22:18:24.397Z,14.20
2022-08-22T22:21:26.225Z,13.87
2022-08-22T22:24:27.893Z,13.80
2022-08-22T22:27:29.579Z,14.17
2022-08-22T22:30:31.545Z,13.00
2022-08-22T22:33:34.563Z,13.80
2022-08-22T22:36:36.224Z,13.53
2022-08-22T22:39:38.776Z,13.37
2022-08-22T22:42:40.497Z,12.90
2022-08-22T22:45:42.101Z,13.20
2022-08-22T22:48:43.743Z,13.57
2022-08-22T22:51:45.418Z,14.00
2022-08-22T22:54:47.231Z,13.23
2022-08-22T22:57:52.804Z,13.53
2022-08-22T23:01:07.005Z,13.20
2022-08-22T23:04:08.663Z,14.30
2022-08-22T23:07:11.267Z,13.13
2022-08-22T23:10:12.868Z,13.47
2022-08-22T23:13:14.598Z,12.30
2022-08-22T23:16:17.943Z,12.77
2022-08-22T23:19:19.788Z,13.40
2022-08-22T23:22:21.450Z,13.40
2022-08-22T23:25:23.075Z,11.73
2022-08-22T23:28:24.691Z,12.17
2022-08-22T23:31:29.412Z,12.67
2022-08-22T23:34:32.567Z,12.77
2022-08-22T23:37:34.536Z,13.43
2022-08-22T23:40:36.323Z,12.03
2022-08-22T23:43:43.311Z,12.43
2022-08-22T23:46:45.431Z,12.30
2022-08-22T23:49:47.082Z,12.33
2022-08-22T23:52:48.700Z,11.97
2022-08-22T23:55:50.362Z,13.23
2022-08-22T23:58:53.274Z,12.47
